sensor_id;sensor_type;location;lat;lon;timestamp;P1;durP1;ratioP1;P2;durP2;ratioP2
6832;SDS011;3454;42.654;23.378;2022-11-10T00:02:02;43.00;;;25.50;;
6832;SDS011;3454;42.654;23.378;2022-11-10T00:04:28;39.70;;;24.97;;
6832;SDS011;3454;42.654;23.378;2022-11-10T00:06:54;43.10;;;26.20;;
6832;SDS011;3454;42.654;23.378;2022-11-10T00:09:19;44.77;;;26.03;;
6832;SDS011;3454;42.654;23.378;2022-11-10T00:11:44;43.60;;;26.37;;
6832;SDS011;3454;42.654;23.378;2022-11-10T00:14:10;40.03;;;25.00;;
6832;SDS011;3454;42.654;23.378;2022-11-10T00:16:54;42.03;;;27.17;;
6832;SDS011;3454;42.654;23.378;2022-11-10T00:19:26;38.47;;;24.77;;
6832;SDS011;3454;42.654;23.378;2022-11-10T00:21:55;41.00;;;25.97;;
6832;SDS011;3454;42.654;23.378;2022-11-10T00:24:20;41.97;;;24.97;;
6832;SDS011;3454;42.654;23.378;2022-11-10T00:26:47;40.83;;;24.80;;
6832;SDS011;3454;42.654;23.378;2022-11-10T00:29:12;39.00;;;27.03;;
6832;SDS011;3454;42.654;23.378;2022-11-10T00:31:38;39.43;;;25.03;;
6832;SDS011;3454;42.654;23.378;2022-11-10T00:34:04;40.43;;;25.87;;
6832;SDS011;3454;42.654;23.378;2022-11-10T00:36:30;41.47;;;25.47;;
6832;SDS011;3454;42.654;23.378;2022-11-10T00:38:56;39.97;;;24.53;;
6832;SDS011;3454;42.654;23.378;2022-11-10T00:41:21;35.67;;;23.97;;
6832;SDS011;3454;42.654;23.378;2022-11-10T00:43:47;38.43;;;24.47;;
6832;SDS011;3454;42.654;23.378;2022-11-10T00:46:13;38.63;;;25.67;;
6832;SDS011;3454;42.654;23.378;2022-11-10T00:48:39;40.70;;;25.77;;
6832;SDS011;3454;42.654;23.378;2022-11-10T00:51:05;39.30;;;24.90;;
6832;SDS011;3454;42.654;23.378;2022-11-10T00:53:31;38.27;;;25.27;;
6832;SDS011;3454;42.654;23.378;2022-11-10T00:55:56;37.87;;;24.77;;
6832;SDS011;3454;42.654;23.378;2022-11-10T00:58:22;33.87;;;23.73;;
6832;SDS011;3454;42.654;23.378;2022-11-10T01:00:47;34.37;;;24.20;;
6832;SDS011;3454;42.654;23.378;2022-11-10T01:03:16;38.57;;;22.97;;
6832;SDS011;3454;42.654;23.378;2022-11-10T01:05:42;33.67;;;23.50;;
6832;SDS011;3454;42.654;23.378;2022-11-10T01:08:08;36.50;;;24.60;;
6832;SDS011;3454;42.654;23.378;2022-11-10T01:10:34;35.70;;;24.07;;
6832;SDS011;3454;42.654;23.378;2022-11-10T01:12:59;36.40;;;24.20;;
6832;SDS011;3454;42.654;23.378;2022-11-10T01:15:25;36.60;;;24.63;;
6832;SDS011;3454;42.654;23.378;2022-11-10T01:17:51;35.30;;;23.87;;
6832;SDS011;3454;42.654;23.378;2022-11-10T01:20:18;38.83;;;25.00;;
6832;SDS011;3454;42.654;23.378;2022-11-10T01:22:44;38.70;;;25.60;;
6832;SDS011;3454;42.654;23.378;2022-11-10T01:25:09;39.27;;;24.90;;
6832;SDS011;3454;42.654;23.378;2022-11-10T01:27:35;38.17;;;25.10;;
6832;SDS011;3454;42.654;23.378;2022-11-10T01:30:01;37.33;;;24.03;;
6832;SDS011;3454;42.654;23.378;2022-11-10T01:32:26;33.93;;;23.20;;
6832;SDS011;3454;42.654;23.378;2022-11-10T01:34:52;35.23;;;22.93;;
6832;SDS011;3454;42.654;23.378;2022-11-10T01:37:17;35.80;;;23.90;;
6832;SDS011;3454;42.654;23.378;2022-11-10T01:39:43;35.83;;;23.70;;
6832;SDS011;3454;42.654;23.378;2022-11-10T01:42:08;35.47;;;23.33;;
6832;SDS011;3454;42.654;23.378;2022-11-10T01:44:34;35.20;;;23.33;;
6832;SDS011;3454;42.654;23.378;2022-11-10T01:46:59;36.90;;;23.53;;
6832;SDS011;3454;42.654;23.378;2022-11-10T01:49:25;37.80;;;23.60;;
6832;SDS011;3454;42.654;23.378;2022-11-10T01:54:29;33.73;;;21.83;;
6832;SDS011;3454;42.654;23.378;2022-11-10T01:56:59;31.63;;;21.90;;
6832;SDS011;3454;42.654;23.378;2022-11-10T01:59:29;34.37;;;22.00;;
6832;SDS011;3454;42.654;23.378;2022-11-10T02:02:43;29.63;;;21.27;;
6832;SDS011;3454;42.654;23.378;2022-11-10T02:04:57;34.30;;;21.43;;
6832;SDS011;3454;42.654;23.378;2022-11-10T02:07:25;35.80;;;21.83;;
6832;SDS011;3454;42.654;23.378;2022-11-10T02:09:52;35.90;;;22.40;;
6832;SDS011;3454;42.654;23.378;2022-11-10T02:12:17;33.07;;;21.07;;
6832;SDS011;3454;42.654;23.378;2022-11-10T02:15:01;34.73;;;21.97;;
6832;SDS011;3454;42.654;23.378;2022-11-10T02:17:28;30.77;;;21.03;;
6832;SDS011;3454;42.654;23.378;2022-11-10T02:19:56;31.93;;;21.90;;
6832;SDS011;3454;42.654;23.378;2022-11-10T02:22:23;34.40;;;21.87;;
6832;SDS011;3454;42.654;23.378;2022-11-10T02:24:49;32.37;;;21.27;;
6832;SDS011;3454;42.654;23.378;2022-11-10T02:27:14;32.10;;;22.07;;
6832;SDS011;3454;42.654;23.378;2022-11-10T02:29:39;35.87;;;23.10;;
6832;SDS011;3454;42.654;23.378;2022-11-10T02:32:05;36.23;;;22.90;;
6832;SDS011;3454;42.654;23.378;2022-11-10T02:34:30;34.33;;;22.17;;
6832;SDS011;3454;42.654;23.378;2022-11-10T02:36:56;36.40;;;23.23;;
6832;SDS011;3454;42.654;23.378;2022-11-10T02:39:21;36.30;;;22.97;;
6832;SDS011;3454;42.654;23.378;2022-11-10T02:41:46;37.23;;;23.67;;
6832;SDS011;3454;42.654;23.378;2022-11-10T02:44:12;36.80;;;22.80;;
6832;SDS011;3454;42.654;23.378;2022-11-10T02:46:37;37.13;;;22.60;;
6832;SDS011;3454;42.654;23.378;2022-11-10T02:49:03;35.40;;;22.30;;
6832;SDS011;3454;42.654;23.378;2022-11-10T02:51:28;39.60;;;23.27;;
6832;SDS011;3454;42.654;23.378;2022-11-10T02:53:54;39.73;;;23.30;;
6832;SDS011;3454;42.654;23.378;2022-11-10T02:56:19;36.80;;;22.70;;
6832;SDS011;3454;42.654;23.378;2022-11-10T02:58:44;40.70;;;20.70;;
6832;SDS011;3454;42.654;23.378;2022-11-10T03:01:10;33.63;;;21.97;;
6832;SDS011;3454;42.654;23.378;2022-11-10T03:03:35;34.40;;;21.73;;
6832;SDS011;3454;42.654;23.378;2022-11-10T03:06:01;40.20;;;23.13;;
6832;SDS011;3454;42.654;23.378;2022-11-10T03:08:26;33.70;;;21.87;;
6832;SDS011;3454;42.654;23.378;2022-11-10T03:10:52;37.37;;;23.40;;
6832;SDS011;3454;42.654;23.378;2022-11-10T03:13:19;34.50;;;22.93;;
6832;SDS011;3454;42.654;23.378;2022-11-10T03:15:51;42.67;;;22.63;;
6832;SDS011;3454;42.654;23.378;2022-11-10T03:18:17;37.07;;;22.23;;
6832;SDS011;3454;42.654;23.378;2022-11-10T03:20:45;38.80;;;22.90;;
6832;SDS011;3454;42.654;23.378;2022-11-10T03:23:11;41.00;;;23.33;;
6832;SDS011;3454;42.654;23.378;2022-11-10T03:25:36;40.40;;;23.30;;
6832;SDS011;3454;42.654;23.378;2022-11-10T03:28:03;36.93;;;23.63;;
6832;SDS011;3454;42.654;23.378;2022-11-10T03:30:28;37.43;;;24.27;;
6832;SDS011;3454;42.654;23.378;2022-11-10T03:32:54;45.33;;;24.93;;
6832;SDS011;3454;42.654;23.378;2022-11-10T03:35:19;35.30;;;24.03;;
6832;SDS011;3454;42.654;23.378;2022-11-10T03:37:45;37.57;;;24.43;;
6832;SDS011;3454;42.654;23.378;2022-11-10T03:40:10;42.00;;;24.07;;
6832;SDS011;3454;42.654;23.378;2022-11-10T03:42:39;43.80;;;25.47;;
6832;SDS011;3454;42.654;23.378;2022-11-10T03:45:06;35.60;;;23.33;;
6832;SDS011;3454;42.654;23.378;2022-11-10T03:47:31;33.67;;;22.40;;
6832;SDS011;3454;42.654;23.378;2022-11-10T03:49:57;39.63;;;23.73;;
6832;SDS011;3454;42.654;23.378;2022-11-10T03:52:22;37.63;;;24.27;;
6832;SDS011;3454;42.654;23.378;2022-11-10T03:54:47;35.27;;;22.57;;
6832;SDS011;3454;42.654;23.378;2022-11-10T03:57:13;38.63;;;24.27;;
6832;SDS011;3454;42.654;23.378;2022-11-10T03:59:39;37.63;;;24.07;;
6832;SDS011;3454;42.654;23.378;2022-11-10T04:02:04;41.03;;;24.00;;
6832;SDS011;3454;42.654;23.378;2022-11-10T04:04:29;35.57;;;23.20;;
6832;SDS011;3454;42.654;23.378;2022-11-10T04:07:13;36.73;;;23.20;;
6832;SDS011;3454;42.654;23.378;2022-11-10T04:09:57;38.50;;;22.00;;
6832;SDS011;3454;42.654;23.378;2022-11-10T04:12:23;33.27;;;21.00;;
6832;SDS011;3454;42.654;23.378;2022-11-10T04:15:09;33.17;;;20.47;;
6832;SDS011;3454;42.654;23.378;2022-11-10T04:17:53;28.90;;;19.13;;
6832;SDS011;3454;42.654;23.378;2022-11-10T04:20:19;30.43;;;18.60;;
6832;SDS011;3454;42.654;23.378;2022-11-10T04:22:44;27.63;;;18.40;;
6832;SDS011;3454;42.654;23.378;2022-11-10T04:25:28;29.10;;;18.70;;
6832;SDS011;3454;42.654;23.378;2022-11-10T04:27:53;28.07;;;18.33;;
6832;SDS011;3454;42.654;23.378;2022-11-10T04:30:19;26.80;;;16.83;;
6832;SDS011;3454;42.654;23.378;2022-11-10T04:32:44;22.07;;;15.87;;
6832;SDS011;3454;42.654;23.378;2022-11-10T04:35:10;24.10;;;16.33;;
6832;SDS011;3454;42.654;23.378;2022-11-10T04:37:35;21.80;;;14.57;;
6832;SDS011;3454;42.654;23.378;2022-11-10T04:40:01;20.43;;;14.83;;
6832;SDS011;3454;42.654;23.378;2022-11-10T04:42:26;22.90;;;15.47;;
6832;SDS011;3454;42.654;23.378;2022-11-10T04:44:52;22.37;;;13.83;;
6832;SDS011;3454;42.654;23.378;2022-11-10T04:47:17;22.63;;;16.03;;
6832;SDS011;3454;42.654;23.378;2022-11-10T04:49:42;21.67;;;14.70;;
6832;SDS011;3454;42.654;23.378;2022-11-10T04:52:08;20.90;;;14.17;;
6832;SDS011;3454;42.654;23.378;2022-11-10T04:54:33;21.93;;;14.73;;
6832;SDS011;3454;42.654;23.378;2022-11-10T04:56:59;18.90;;;13.40;;
6832;SDS011;3454;42.654;23.378;2022-11-10T04:59:24;19.20;;;13.70;;
6832;SDS011;3454;42.654;23.378;2022-11-10T05:01:49;22.57;;;14.50;;
6832;SDS011;3454;42.654;23.378;2022-11-10T05:04:15;19.47;;;13.77;;
6832;SDS011;3454;42.654;23.378;2022-11-10T05:06:40;25.93;;;13.47;;
6832;SDS011;3454;42.654;23.378;2022-11-10T05:09:06;21.83;;;14.77;;
6832;SDS011;3454;42.654;23.378;2022-11-10T05:11:31;23.40;;;14.03;;
6832;SDS011;3454;42.654;23.378;2022-11-10T05:13:56;21.40;;;14.33;;
6832;SDS011;3454;42.654;23.378;2022-11-10T05:16:22;21.23;;;14.37;;
6832;SDS011;3454;42.654;23.378;2022-11-10T05:18:47;22.27;;;13.27;;
6832;SDS011;3454;42.654;23.378;2022-11-10T05:21:18;22.83;;;14.87;;
6832;SDS011;3454;42.654;23.378;2022-11-10T05:23:44;23.27;;;14.63;;
6832;SDS011;3454;42.654;23.378;2022-11-10T05:26:15;20.10;;;14.10;;
6832;SDS011;3454;42.654;23.378;2022-11-10T05:28:42;19.87;;;13.83;;
6832;SDS011;3454;42.654;23.378;2022-11-10T05:31:09;23.27;;;15.07;;
6832;SDS011;3454;42.654;23.378;2022-11-10T05:33:36;25.40;;;14.30;;
6832;SDS011;3454;42.654;23.378;2022-11-10T05:36:02;25.20;;;15.53;;
6832;SDS011;3454;42.654;23.378;2022-11-10T05:38:29;24.53;;;14.60;;
6832;SDS011;3454;42.654;23.378;2022-11-10T05:40:55;23.23;;;14.63;;
6832;SDS011;3454;42.654;23.378;2022-11-10T05:43:20;25.67;;;16.27;;
6832;SDS011;3454;42.654;23.378;2022-11-10T05:45:46;21.37;;;13.80;;
6832;SDS011;3454;42.654;23.378;2022-11-10T05:48:11;21.20;;;14.87;;
6832;SDS011;3454;42.654;23.378;2022-11-10T05:50:37;22.43;;;14.17;;
6832;SDS011;3454;42.654;23.378;2022-11-10T05:53:02;23.10;;;14.40;;
6832;SDS011;3454;42.654;23.378;2022-11-10T05:55:28;22.77;;;14.67;;
6832;SDS011;3454;42.654;23.378;2022-11-10T05:57:54;25.07;;;14.13;;
6832;SDS011;3454;42.654;23.378;2022-11-10T06:00:22;19.63;;;13.37;;
6832;SDS011;3454;42.654;23.378;2022-11-10T06:03:22;22.40;;;13.93;;
6832;SDS011;3454;42.654;23.378;2022-11-10T06:05:42;24.27;;;14.33;;
6832;SDS011;3454;42.654;23.378;2022-11-10T06:08:08;21.53;;;14.63;;
6832;SDS011;3454;42.654;23.378;2022-11-10T06:10:35;22.13;;;13.90;;
6832;SDS011;3454;42.654;23.378;2022-11-10T06:13:01;22.27;;;14.87;;
6832;SDS011;3454;42.654;23.378;2022-11-10T06:15:27;22.80;;;14.83;;
6832;SDS011;3454;42.654;23.378;2022-11-10T06:17:54;23.17;;;14.23;;
6832;SDS011;3454;42.654;23.378;2022-11-10T06:20:20;20.30;;;14.67;;
6832;SDS011;3454;42.654;23.378;2022-11-10T06:23:02;23.80;;;14.57;;
6832;SDS011;3454;42.654;23.378;2022-11-10T06:25:34;24.33;;;14.37;;
6832;SDS011;3454;42.654;23.378;2022-11-10T06:28:00;23.73;;;14.77;;
6832;SDS011;3454;42.654;23.378;2022-11-10T06:30:27;22.17;;;14.77;;
6832;SDS011;3454;42.654;23.378;2022-11-10T06:32:54;23.20;;;15.60;;
6832;SDS011;3454;42.654;23.378;2022-11-10T06:35:20;22.83;;;15.20;;
6832;SDS011;3454;42.654;23.378;2022-11-10T06:37:55;24.60;;;15.37;;
6832;SDS011;3454;42.654;23.378;2022-11-10T06:40:21;24.23;;;15.73;;
6832;SDS011;3454;42.654;23.378;2022-11-10T06:42:47;23.73;;;14.80;;
6832;SDS011;3454;42.654;23.378;2022-11-10T06:45:12;23.60;;;15.07;;
6832;SDS011;3454;42.654;23.378;2022-11-10T06:47:38;22.40;;;15.27;;
6832;SDS011;3454;42.654;23.378;2022-11-10T06:50:03;26.43;;;15.57;;
6832;SDS011;3454;42.654;23.378;2022-11-10T06:52:29;23.03;;;15.70;;
6832;SDS011;3454;42.654;23.378;2022-11-10T06:55:03;26.17;;;16.00;;
6832;SDS011;3454;42.654;23.378;2022-11-10T06:57:28;29.27;;;15.93;;
6832;SDS011;3454;42.654;23.378;2022-11-10T06:59:54;27.70;;;15.77;;
6832;SDS011;3454;42.654;23.378;2022-11-10T07:02:19;29.53;;;18.73;;
6832;SDS011;3454;42.654;23.378;2022-11-10T07:04:45;27.90;;;18.50;;
6832;SDS011;3454;42.654;23.378;2022-11-10T07:07:11;33.80;;;18.97;;
6832;SDS011;3454;42.654;23.378;2022-11-10T07:09:36;33.43;;;21.03;;
6832;SDS011;3454;42.654;23.378;2022-11-10T07:12:02;31.07;;;20.90;;
6832;SDS011;3454;42.654;23.378;2022-11-10T07:14:28;33.23;;;22.23;;
6832;SDS011;3454;42.654;23.378;2022-11-10T07:16:54;42.03;;;25.67;;
6832;SDS011;3454;42.654;23.378;2022-11-10T07:19:19;41.07;;;26.53;;
6832;SDS011;3454;42.654;23.378;2022-11-10T07:21:45;43.30;;;25.70;;
6832;SDS011;3454;42.654;23.378;2022-11-10T07:24:11;47.47;;;27.83;;
6832;SDS011;3454;42.654;23.378;2022-11-10T07:26:36;55.43;;;29.57;;
6832;SDS011;3454;42.654;23.378;2022-11-10T07:29:01;61.83;;;35.33;;
6832;SDS011;3454;42.654;23.378;2022-11-10T07:31:27;58.90;;;32.63;;
6832;SDS011;3454;42.654;23.378;2022-11-10T07:33:52;63.67;;;32.97;;
6832;SDS011;3454;42.654;23.378;2022-11-10T07:36:18;62.27;;;32.93;;
6832;SDS011;3454;42.654;23.378;2022-11-10T07:38:43;61.07;;;34.80;;
6832;SDS011;3454;42.654;23.378;2022-11-10T07:41:09;74.03;;;35.50;;
6832;SDS011;3454;42.654;23.378;2022-11-10T07:43:34;69.63;;;34.90;;
6832;SDS011;3454;42.654;23.378;2022-11-10T07:45:59;66.53;;;35.93;;
6832;SDS011;3454;42.654;23.378;2022-11-10T07:48:25;71.87;;;36.13;;
6832;SDS011;3454;42.654;23.378;2022-11-10T07:50:50;68.93;;;36.37;;
6832;SDS011;3454;42.654;23.378;2022-11-10T07:53:17;62.80;;;35.27;;
6832;SDS011;3454;42.654;23.378;2022-11-10T07:55:44;65.40;;;36.43;;
6832;SDS011;3454;42.654;23.378;2022-11-10T07:58:11;61.27;;;33.50;;
6832;SDS011;3454;42.654;23.378;2022-11-10T08:00:39;62.53;;;34.43;;
6832;SDS011;3454;42.654;23.378;2022-11-10T08:03:05;64.53;;;34.80;;
6832;SDS011;3454;42.654;23.378;2022-11-10T08:05:34;65.07;;;33.77;;
6832;SDS011;3454;42.654;23.378;2022-11-10T08:08:01;63.40;;;35.57;;
6832;SDS011;3454;42.654;23.378;2022-11-10T08:10:28;62.60;;;35.20;;
6832;SDS011;3454;42.654;23.378;2022-11-10T08:12:55;67.73;;;37.33;;
6832;SDS011;3454;42.654;23.378;2022-11-10T08:15:22;60.40;;;35.00;;
6832;SDS011;3454;42.654;23.378;2022-11-10T08:17:48;62.67;;;36.30;;
6832;SDS011;3454;42.654;23.378;2022-11-10T08:20:14;67.77;;;37.93;;
6832;SDS011;3454;42.654;23.378;2022-11-10T08:22:41;67.23;;;37.07;;
6832;SDS011;3454;42.654;23.378;2022-11-10T08:25:06;59.33;;;35.13;;
6832;SDS011;3454;42.654;23.378;2022-11-10T08:27:32;55.57;;;34.17;;
6832;SDS011;3454;42.654;23.378;2022-11-10T08:29:58;55.90;;;35.47;;
6832;SDS011;3454;42.654;23.378;2022-11-10T08:32:23;59.83;;;35.97;;
6832;SDS011;3454;42.654;23.378;2022-11-10T08:34:49;60.53;;;35.63;;
6832;SDS011;3454;42.654;23.378;2022-11-10T08:37:14;63.43;;;35.03;;
6832;SDS011;3454;42.654;23.378;2022-11-10T08:39:39;58.70;;;34.73;;
6832;SDS011;3454;42.654;23.378;2022-11-10T08:42:05;64.95;;;35.53;;
6832;SDS011;3454;42.654;23.378;2022-11-10T08:44:30;57.57;;;37.43;;
6832;SDS011;3454;42.654;23.378;2022-11-10T08:46:56;56.87;;;36.37;;
6832;SDS011;3454;42.654;23.378;2022-11-10T08:49:21;54.93;;;37.20;;
6832;SDS011;3454;42.654;23.378;2022-11-10T08:51:46;66.25;;;37.97;;
6832;SDS011;3454;42.654;23.378;2022-11-10T08:54:12;58.93;;;36.27;;
6832;SDS011;3454;42.654;23.378;2022-11-10T08:56:37;63.23;;;38.77;;
6832;SDS011;3454;42.654;23.378;2022-11-10T08:59:03;62.97;;;40.03;;
6832;SDS011;3454;42.654;23.378;2022-11-10T09:01:28;66.80;;;42.58;;
6832;SDS011;3454;42.654;23.378;2022-11-10T09:03:53;67.30;;;40.53;;
6832;SDS011;3454;42.654;23.378;2022-11-10T09:06:19;69.65;;;41.70;;
6832;SDS011;3454;42.654;23.378;2022-11-10T09:08:44;69.18;;;41.30;;
6832;SDS011;3454;42.654;23.378;2022-11-10T09:11:10;69.78;;;41.33;;
6832;SDS011;3454;42.654;23.378;2022-11-10T09:13:35;67.88;;;40.95;;
6832;SDS011;3454;42.654;23.378;2022-11-10T09:16:01;68.43;;;39.92;;
6832;SDS011;3454;42.654;23.378;2022-11-10T09:18:28;70.38;;;40.92;;
6832;SDS011;3454;42.654;23.378;2022-11-10T09:20:54;69.78;;;40.92;;
6832;SDS011;3454;42.654;23.378;2022-11-10T09:23:19;64.55;;;39.85;;
6832;SDS011;3454;42.654;23.378;2022-11-10T09:25:49;67.70;;;40.38;;
6832;SDS011;3454;42.654;23.378;2022-11-10T09:28:17;47.05;;;27.90;;
6832;SDS011;3454;42.654;23.378;2022-11-10T09:30:44;71.60;;;44.13;;
6832;SDS011;3454;42.654;23.378;2022-11-10T09:33:11;70.65;;;42.40;;
6832;SDS011;3454;42.654;23.378;2022-11-10T09:35:36;66.95;;;42.47;;
6832;SDS011;3454;42.654;23.378;2022-11-10T09:38:01;69.70;;;42.42;;
6832;SDS011;3454;42.654;23.378;2022-11-10T09:46:07;64.22;;;39.95;;
6832;SDS011;3454;42.654;23.378;2022-11-10T09:48:44;64.78;;;39.80;;
6832;SDS011;3454;42.654;23.378;2022-11-10T09:51:31;61.45;;;40.25;;
6832;SDS011;3454;42.654;23.378;2022-11-10T09:54:46;59.00;;;40.85;;
6832;SDS011;3454;42.654;23.378;2022-11-10T09:56:59;71.65;;;40.85;;
6832;SDS011;3454;42.654;23.378;2022-11-10T09:59:31;59.78;;;38.63;;
6832;SDS011;3454;42.654;23.378;2022-11-10T10:01:59;58.50;;;40.92;;
6832;SDS011;3454;42.654;23.378;2022-11-10T10:15:32;60.00;;;38.15;;
6832;SDS011;3454;42.654;23.378;2022-11-10T10:18:11;56.95;;;38.58;;
6832;SDS011;3454;42.654;23.378;2022-11-10T10:23:57;59.55;;;39.63;;
6832;SDS011;3454;42.654;23.378;2022-11-10T10:26:27;57.55;;;38.50;;
6832;SDS011;3454;42.654;23.378;2022-11-10T10:28:54;62.10;;;39.17;;
6832;SDS011;3454;42.654;23.378;2022-11-10T10:31:28;57.67;;;38.33;;
6832;SDS011;3454;42.654;23.378;2022-11-10T10:33:58;55.35;;;36.70;;
6832;SDS011;3454;42.654;23.378;2022-11-10T10:36:25;56.10;;;39.88;;
6832;SDS011;3454;42.654;23.378;2022-11-10T10:38:58;62.40;;;39.60;;
6832;SDS011;3454;42.654;23.378;2022-11-10T10:41:27;57.83;;;37.70;;
6832;SDS011;3454;42.654;23.378;2022-11-10T10:43:55;59.22;;;37.35;;
6832;SDS011;3454;42.654;23.378;2022-11-10T10:46:22;55.40;;;38.05;;
6832;SDS011;3454;42.654;23.378;2022-11-10T10:51:35;57.72;;;37.88;;
6832;SDS011;3454;42.654;23.378;2022-11-10T10:54:01;55.22;;;35.92;;
6832;SDS011;3454;42.654;23.378;2022-11-10T10:56:27;57.10;;;37.90;;
6832;SDS011;3454;42.654;23.378;2022-11-10T10:58:57;53.38;;;37.35;;
6832;SDS011;3454;42.654;23.378;2022-11-10T11:01:30;57.45;;;37.50;;
6832;SDS011;3454;42.654;23.378;2022-11-10T11:03:57;56.72;;;36.00;;
6832;SDS011;3454;42.654;23.378;2022-11-10T11:06:33;56.28;;;35.78;;
6832;SDS011;3454;42.654;23.378;2022-11-10T11:09:06;60.05;;;37.67;;
6832;SDS011;3454;42.654;23.378;2022-11-10T11:11:39;57.58;;;38.33;;
6832;SDS011;3454;42.654;23.378;2022-11-10T11:16:57;54.63;;;36.15;;
6832;SDS011;3454;42.654;23.378;2022-11-10T11:19:31;51.78;;;35.63;;
6832;SDS011;3454;42.654;23.378;2022-11-10T11:30:23;53.38;;;36.67;;
6832;SDS011;3454;42.654;23.378;2022-11-10T11:33:09;51.67;;;32.22;;
6832;SDS011;3454;42.654;23.378;2022-11-10T11:35:50;53.80;;;34.70;;
6832;SDS011;3454;42.654;23.378;2022-11-10T11:46:30;48.50;;;33.60;;
6832;SDS011;3454;42.654;23.378;2022-11-10T11:51:43;52.78;;;35.67;;
6832;SDS011;3454;42.654;23.378;2022-11-10T12:00:02;48.05;;;34.15;;
6832;SDS011;3454;42.654;23.378;2022-11-10T12:07:53;48.72;;;32.88;;
6832;SDS011;3454;42.654;23.378;2022-11-10T12:18:44;48.47;;;31.02;;
6832;SDS011;3454;42.654;23.378;2022-11-10T12:24:43;50.58;;;31.58;;
6832;SDS011;3454;42.654;23.378;2022-11-10T12:35:05;52.13;;;31.52;;
6832;SDS011;3454;42.654;23.378;2022-11-10T12:37:53;47.80;;;31.75;;
6832;SDS011;3454;42.654;23.378;2022-11-10T12:40:20;48.15;;;32.17;;
6832;SDS011;3454;42.654;23.378;2022-11-10T12:43:11;51.85;;;32.92;;
6832;SDS011;3454;42.654;23.378;2022-11-10T12:45:47;49.20;;;30.90;;
6832;SDS011;3454;42.654;23.378;2022-11-10T12:48:17;50.72;;;31.98;;
6832;SDS011;3454;42.654;23.378;2022-11-10T12:50:59;49.90;;;33.83;;
6832;SDS011;3454;42.654;23.378;2022-11-10T12:53:32;46.78;;;31.20;;
6832;SDS011;3454;42.654;23.378;2022-11-10T12:56:05;47.05;;;31.70;;
6832;SDS011;3454;42.654;23.378;2022-11-10T12:58:31;44.10;;;30.75;;
6832;SDS011;3454;42.654;23.378;2022-11-10T13:01:00;42.95;;;31.77;;
6832;SDS011;3454;42.654;23.378;2022-11-10T13:03:30;48.65;;;32.88;;
6832;SDS011;3454;42.654;23.378;2022-11-10T13:06:01;46.80;;;32.40;;
6832;SDS011;3454;42.654;23.378;2022-11-10T13:08:47;47.35;;;32.15;;
6832;SDS011;3454;42.654;23.378;2022-11-10T13:13:39;49.90;;;32.72;;
6832;SDS011;3454;42.654;23.378;2022-11-10T13:19:08;44.70;;;32.83;;
6832;SDS011;3454;42.654;23.378;2022-11-10T13:24:28;48.58;;;30.63;;
6832;SDS011;3454;42.654;23.378;2022-11-10T13:34:36;46.53;;;31.42;;
6832;SDS011;3454;42.654;23.378;2022-11-10T13:37:47;45.92;;;31.80;;
6832;SDS011;3454;42.654;23.378;2022-11-10T13:42:41;42.35;;;29.95;;
6832;SDS011;3454;42.654;23.378;2022-11-10T13:47:53;44.83;;;29.63;;
6832;SDS011;3454;42.654;23.378;2022-11-10T13:50:32;48.05;;;31.58;;
6832;SDS011;3454;42.654;23.378;2022-11-10T13:53:32;43.28;;;29.85;;
6832;SDS011;3454;42.654;23.378;2022-11-10T13:59:21;51.53;;;31.75;;
6832;SDS011;3454;42.654;23.378;2022-11-10T14:01:49;41.38;;;30.05;;
6832;SDS011;3454;42.654;23.378;2022-11-10T14:07:16;46.65;;;30.88;;
6832;SDS011;3454;42.654;23.378;2022-11-10T14:09:44;47.75;;;30.85;;
6832;SDS011;3454;42.654;23.378;2022-11-10T14:12:17;44.42;;;29.92;;
6832;SDS011;3454;42.654;23.378;2022-11-10T14:14:59;48.83;;;31.42;;
6832;SDS011;3454;42.654;23.378;2022-11-10T14:17:28;42.15;;;29.55;;
6832;SDS011;3454;42.654;23.378;2022-11-10T14:19:57;55.35;;;29.80;;
6832;SDS011;3454;42.654;23.378;2022-11-10T14:27:50;46.72;;;29.55;;
6832;SDS011;3454;42.654;23.378;2022-11-10T14:32:56;47.38;;;29.58;;
6832;SDS011;3454;42.654;23.378;2022-11-10T14:35:27;42.70;;;28.95;;
6832;SDS011;3454;42.654;23.378;2022-11-10T14:37:58;48.28;;;30.88;;
6832;SDS011;3454;42.654;23.378;2022-11-10T14:40:25;53.03;;;31.15;;
6832;SDS011;3454;42.654;23.378;2022-11-10T14:42:52;59.95;;;29.00;;
6832;SDS011;3454;42.654;23.378;2022-11-10T14:47:52;51.35;;;31.58;;
6832;SDS011;3454;42.654;23.378;2022-11-10T14:50:23;49.28;;;31.90;;
6832;SDS011;3454;42.654;23.378;2022-11-10T14:53:02;45.78;;;31.58;;
6832;SDS011;3454;42.654;23.378;2022-11-10T14:55:33;53.42;;;31.13;;
6832;SDS011;3454;42.654;23.378;2022-11-10T14:58:06;48.28;;;30.50;;
6832;SDS011;3454;42.654;23.378;2022-11-10T15:00:37;49.45;;;29.85;;
6832;SDS011;3454;42.654;23.378;2022-11-10T15:03:04;51.03;;;31.50;;
6832;SDS011;3454;42.654;23.378;2022-11-10T15:05:30;48.72;;;31.52;;
6832;SDS011;3454;42.654;23.378;2022-11-10T15:07:56;51.20;;;30.63;;
6832;SDS011;3454;42.654;23.378;2022-11-10T15:10:27;45.17;;;29.83;;
6832;SDS011;3454;42.654;23.378;2022-11-10T15:15:37;55.33;;;30.38;;
6832;SDS011;3454;42.654;23.378;2022-11-10T15:18:04;57.47;;;30.20;;
6832;SDS011;3454;42.654;23.378;2022-11-10T15:20:31;54.13;;;28.80;;
6832;SDS011;3454;42.654;23.378;2022-11-10T15:23:17;46.45;;;27.08;;
6832;SDS011;3454;42.654;23.378;2022-11-10T15:25:50;48.65;;;29.70;;
6832;SDS011;3454;42.654;23.378;2022-11-10T15:30:50;51.92;;;29.08;;
6832;SDS011;3454;42.654;23.378;2022-11-10T15:33:20;45.53;;;27.73;;
6832;SDS011;3454;42.654;23.378;2022-11-10T15:35:52;48.25;;;27.02;;
6832;SDS011;3454;42.654;23.378;2022-11-10T15:38:27;40.72;;;24.52;;
6832;SDS011;3454;42.654;23.378;2022-11-10T15:41:04;46.67;;;25.08;;
6832;SDS011;3454;42.654;23.378;2022-11-10T15:43:35;40.08;;;23.20;;
6832;SDS011;3454;42.654;23.378;2022-11-10T15:46:02;36.40;;;22.58;;
6832;SDS011;3454;42.654;23.378;2022-11-10T15:48:36;36.42;;;21.55;;
6832;SDS011;3454;42.654;23.378;2022-11-10T15:51:04;38.33;;;20.75;;
6832;SDS011;3454;42.654;23.378;2022-11-10T15:53:31;41.22;;;21.05;;
6832;SDS011;3454;42.654;23.378;2022-11-10T15:55:58;40.85;;;21.00;;
6832;SDS011;3454;42.654;23.378;2022-11-10T15:58:25;45.05;;;21.70;;
6832;SDS011;3454;42.654;23.378;2022-11-10T16:00:51;39.87;;;23.20;;
6832;SDS011;3454;42.654;23.378;2022-11-10T16:03:17;37.97;;;21.20;;
6832;SDS011;3454;42.654;23.378;2022-11-10T16:05:44;39.83;;;22.20;;
6832;SDS011;3454;42.654;23.378;2022-11-10T16:08:10;42.25;;;22.95;;
6832;SDS011;3454;42.654;23.378;2022-11-10T16:10:41;35.97;;;21.00;;
6832;SDS011;3454;42.654;23.378;2022-11-10T16:13:10;36.55;;;21.30;;
6832;SDS011;3454;42.654;23.378;2022-11-10T16:15:38;43.63;;;21.73;;
6832;SDS011;3454;42.654;23.378;2022-11-10T16:18:09;37.25;;;21.27;;
6832;SDS011;3454;42.654;23.378;2022-11-10T16:20:36;42.17;;;21.98;;
6832;SDS011;3454;42.654;23.378;2022-11-10T16:23:02;51.13;;;22.02;;
6832;SDS011;3454;42.654;23.378;2022-11-10T16:25:27;41.73;;;22.10;;
6832;SDS011;3454;42.654;23.378;2022-11-10T16:27:53;44.63;;;22.23;;
6832;SDS011;3454;42.654;23.378;2022-11-10T16:30:21;33.47;;;19.27;;
6832;SDS011;3454;42.654;23.378;2022-11-10T16:32:46;39.83;;;20.00;;
6832;SDS011;3454;42.654;23.378;2022-11-10T16:35:12;52.67;;;21.20;;
6832;SDS011;3454;42.654;23.378;2022-11-10T16:37:39;32.90;;;19.85;;
6832;SDS011;3454;42.654;23.378;2022-11-10T16:40:16;35.70;;;20.77;;
6832;SDS011;3454;42.654;23.378;2022-11-10T16:42:47;34.10;;;19.63;;